createdAt,value
2023-07-11T00:00:58.391Z,23.87
2023-07-11T00:03:25.187Z,23.85
2023-07-11T00:06:01.620Z,23.84
2023-07-11T00:08:28.600Z,23.84
2023-07-11T00:10:55.328Z,23.84
2023-07-11T00:13:22.611Z,23.83
2023-07-11T00:15:56.782Z,23.80
2023-07-11T00:18:23.571Z,23.80
2023-07-11T00:20:50.111Z,23.78
2023-07-11T00:23:16.702Z,23.79
2023-07-11T00:25:43.213Z,23.78
2023-07-11T00:28:09.695Z,23.78
2023-07-11T00:30:36.208Z,23.75
2023-07-11T00:33:02.752Z,23.75
2023-07-11T00:35:29.702Z,23.74
2023-07-11T00:37:56.186Z,23.73
2023-07-11T00:40:22.681Z,23.75
2023-07-11T00:42:54.358Z,23.71
2023-07-11T00:45:51.718Z,23.72
2023-07-11T00:48:21.157Z,23.67
2023-07-11T00:50:48.327Z,23.68
2023-07-11T00:53:15.710Z,23.68
2023-07-11T00:55:43.668Z,23.67
2023-07-11T00:58:10.944Z,23.67
2023-07-11T01:00:37.499Z,23.68
2023-07-11T01:03:04.431Z,23.68
2023-07-11T01:05:31.061Z,23.65
2023-07-11T01:07:57.628Z,23.66
2023-07-11T01:10:24.227Z,23.64
2023-07-11T01:12:50.822Z,23.63
2023-07-11T01:15:17.429Z,23.62
2023-07-11T01:17:43.938Z,23.61
2023-07-11T01:20:11.190Z,23.60
2023-07-11T01:22:39.188Z,23.59
2023-07-11T01:25:12.181Z,23.58
2023-07-11T01:27:40.798Z,23.59
2023-07-11T01:30:10.818Z,23.59
2023-07-11T01:32:38.528Z,23.59
2023-07-11T01:35:05.946Z,23.58
2023-07-11T01:37:33.224Z,23.59
2023-07-11T01:39:59.725Z,23.55
2023-07-11T01:42:27.561Z,23.54
2023-07-11T01:44:54.529Z,23.53
2023-07-11T01:47:21.096Z,23.54
2023-07-11T01:49:48.044Z,23.53
2023-07-11T01:52:20.380Z,23.50
2023-07-11T01:54:49.950Z,23.52
2023-07-11T01:57:16.420Z,23.52
2023-07-11T01:59:43.368Z,23.50
2023-07-11T02:02:11.533Z,23.49
2023-07-11T02:04:38.787Z,23.49
2023-07-11T02:07:06.642Z,23.46
2023-07-11T02:09:33.258Z,23.47
2023-07-11T02:11:59.863Z,23.45
2023-07-11T02:14:26.409Z,23.41
2023-07-11T02:16:54.360Z,23.40
2023-07-11T02:19:23.138Z,23.43
2023-07-11T02:21:50.335Z,23.42
2023-07-11T02:24:18.590Z,23.40
2023-07-11T02:26:45.361Z,23.40
2023-07-11T02:29:13.056Z,23.39
2023-07-11T02:31:39.863Z,23.38
2023-07-11T02:34:06.658Z,23.37
2023-07-11T02:36:33.922Z,23.36
2023-07-11T02:39:00.438Z,23.35
2023-07-11T02:41:27.385Z,23.34
2023-07-11T02:43:54.283Z,23.34
2023-07-11T02:46:21.383Z,23.36
2023-07-11T02:48:47.943Z,23.36
2023-07-11T02:51:14.547Z,23.33
2023-07-11T02:53:41.096Z,23.30
2023-07-11T02:56:07.908Z,23.29
2023-07-11T02:58:34.607Z,23.27
2023-07-11T03:01:03.278Z,23.28
2023-07-11T03:03:30.150Z,23.27
2023-07-11T03:05:57.386Z,23.25
2023-07-11T03:08:24.086Z,23.24
2023-07-11T03:10:50.710Z,23.23
2023-07-11T03:13:19.217Z,23.21
2023-07-11T03:15:46.051Z,23.20
2023-07-11T03:18:14.138Z,23.22
2023-07-11T03:20:42.592Z,23.22
2023-07-11T03:23:11.558Z,23.19
2023-07-11T03:25:38.265Z,23.18
2023-07-11T03:28:05.042Z,23.17
2023-07-11T03:30:32.765Z,23.17
2023-07-11T03:35:25.748Z,23.17
2023-07-11T03:37:52.323Z,23.18
2023-07-11T03:40:18.973Z,23.16
2023-07-11T03:42:45.581Z,23.15
2023-07-11T03:45:12.282Z,23.15
2023-07-11T03:47:38.817Z,23.14
2023-07-11T03:50:06.134Z,23.14
2023-07-11T03:52:32.709Z,23.14
2023-07-11T03:54:59.179Z,23.15
2023-07-11T03:57:25.709Z,23.14
2023-07-11T03:59:52.209Z,23.13
2023-07-11T04:02:18.791Z,23.11
2023-07-11T04:04:45.589Z,23.11
2023-07-11T04:07:12.102Z,23.10
2023-07-11T04:09:41.936Z,23.09
2023-07-11T04:12:09.365Z,23.09
2023-07-11T04:14:35.978Z,23.10
2023-07-11T04:17:02.576Z,23.12
2023-07-11T04:19:29.137Z,23.10
2023-07-11T04:21:56.154Z,23.09
2023-07-11T04:24:22.659Z,23.10
2023-07-11T04:26:49.147Z,23.09
2023-07-11T04:29:15.685Z,23.09
2023-07-11T04:31:42.214Z,23.08
2023-07-11T04:34:08.697Z,23.07
2023-07-11T04:36:35.243Z,23.06
2023-07-11T04:39:01.778Z,23.06
2023-07-11T04:41:28.790Z,23.05
2023-07-11T04:43:55.378Z,23.00
2023-07-11T04:46:21.926Z,23.08
2023-07-11T04:48:48.447Z,22.95
2023-07-11T04:51:15.951Z,22.76
2023-07-11T04:53:42.508Z,22.55
2023-07-11T04:56:10.791Z,22.59
2023-07-11T04:58:37.667Z,22.71
2023-07-11T05:01:10.427Z,22.82
2023-07-11T05:03:36.985Z,22.82
2023-07-11T05:06:05.718Z,22.85
2023-07-11T05:08:33.013Z,22.88
2023-07-11T05:11:02.013Z,22.92
2023-07-11T05:13:32.089Z,22.99
2023-07-11T05:16:04.285Z,23.03
2023-07-11T05:18:31.176Z,23.03
2023-07-11T05:20:59.149Z,23.04
2023-07-11T05:23:28.567Z,23.05
2023-07-11T05:25:55.779Z,23.06
2023-07-11T05:28:23.627Z,23.07
2023-07-11T05:30:50.106Z,23.08
2023-07-11T05:33:16.917Z,23.13
2023-07-11T05:35:50.349Z,23.15
2023-07-11T05:38:16.874Z,23.17
2023-07-11T05:40:43.591Z,23.20
2023-07-11T05:43:10.474Z,23.23
2023-07-11T05:45:36.958Z,23.25
2023-07-11T05:48:03.878Z,23.28
2023-07-11T05:50:30.367Z,23.31
2023-07-11T05:52:56.827Z,23.35
2023-07-11T05:55:23.342Z,23.35
2023-07-11T05:57:49.840Z,23.37
2023-07-11T06:00:16.700Z,23.40
2023-07-11T06:02:43.247Z,23.41
2023-07-11T06:05:10.480Z,23.42
2023-07-11T06:07:37.215Z,23.44
2023-07-11T06:10:04.013Z,23.45
2023-07-11T06:12:30.464Z,23.47
2023-07-11T06:14:56.972Z,23.48
2023-07-11T06:17:23.482Z,23.49
2023-07-11T06:19:49.975Z,23.53
2023-07-11T06:22:16.454Z,23.58
2023-07-11T06:24:43.614Z,23.59
2023-07-11T06:27:10.150Z,23.61
2023-07-11T06:29:36.620Z,23.60
2023-07-11T06:32:04.031Z,23.62
2023-07-11T06:34:30.570Z,23.61
2023-07-11T06:36:57.164Z,23.61
2023-07-11T06:39:24.156Z,23.61
2023-07-11T06:41:50.609Z,23.62
2023-07-11T06:44:17.085Z,23.61
2023-07-11T06:46:43.565Z,23.62
2023-07-11T06:49:10.093Z,23.63
2023-07-11T06:51:36.650Z,23.64
2023-07-11T06:54:03.517Z,23.65
2023-07-11T06:56:30.068Z,23.67
2023-07-11T06:58:56.600Z,23.67
2023-07-11T07:01:35.861Z,23.69
2023-07-11T07:04:05.921Z,23.68
2023-07-11T07:06:32.947Z,23.69
2023-07-11T07:09:01.528Z,23.70
2023-07-11T07:11:28.360Z,23.75
2023-07-11T07:14:04.665Z,23.71
2023-07-11T07:16:37.352Z,23.72
2023-07-11T07:19:04.964Z,23.74
2023-07-11T07:21:32.059Z,23.74
2023-07-11T07:23:59.057Z,23.75
2023-07-11T07:26:25.816Z,23.75
2023-07-11T07:28:52.461Z,23.76
2023-07-11T07:31:19.129Z,23.78
2023-07-11T07:33:45.677Z,23.78
2023-07-11T07:36:13.841Z,23.79
2023-07-11T07:38:40.792Z,23.79
2023-07-11T07:41:09.690Z,23.81
2023-07-11T07:43:37.580Z,23.81
2023-07-11T07:46:05.060Z,23.82
2023-07-11T07:48:31.732Z,23.82
2023-07-11T07:51:05.774Z,23.83
2023-07-11T07:53:32.675Z,23.83
2023-07-11T07:56:05.318Z,23.84
2023-07-11T07:58:42.890Z,23.84
2023-07-11T08:01:12.272Z,23.85
2023-07-11T08:03:40.365Z,23.86
2023-07-11T08:08:37.253Z,23.87
2023-07-11T08:11:06.070Z,23.86
2023-07-11T08:13:44.932Z,23.88
2023-07-11T08:18:51.593Z,23.89
2023-07-11T08:21:18.087Z,23.90
2023-07-11T08:23:44.603Z,23.90
2023-07-11T08:26:11.494Z,23.91
2023-07-11T08:28:38.051Z,23.91
2023-07-11T08:31:06.450Z,23.91
2023-07-11T08:33:33.148Z,23.91
2023-07-11T08:36:00.347Z,23.92
2023-07-11T08:38:26.927Z,23.92
2023-07-11T08:40:53.443Z,23.93
2023-07-11T08:43:30.633Z,23.91
2023-07-11T08:46:13.442Z,23.94
2023-07-11T08:48:45.334Z,23.94
2023-07-11T08:51:20.791Z,23.95
2023-07-11T08:53:56.288Z,23.96
2023-07-11T08:56:41.321Z,23.96
2023-07-11T08:59:16.888Z,23.99
2023-07-11T09:01:51.091Z,23.97
2023-07-11T09:04:22.601Z,23.97
2023-07-11T09:06:59.127Z,23.99
2023-07-11T09:09:26.666Z,23.99
2023-07-11T09:12:22.452Z,23.99
2023-07-11T09:15:07.349Z,24.00
2023-07-11T09:17:58.852Z,24.02
2023-07-11T09:20:43.120Z,24.02
2023-07-11T09:23:37.203Z,24.03
2023-07-11T09:26:10.361Z,24.05
2023-07-11T09:28:39.113Z,24.04
2023-07-11T09:31:14.763Z,24.04
2023-07-11T09:33:47.892Z,24.05
2023-07-11T09:36:31.559Z,24.07
2023-07-11T09:39:30.950Z,24.07
2023-07-11T09:42:14.468Z,24.07
2023-07-11T09:44:40.962Z,24.08
2023-07-11T09:47:18.659Z,24.09
2023-07-11T09:49:47.955Z,24.09
2023-07-11T09:52:27.381Z,24.10
2023-07-11T09:55:08.324Z,24.11
2023-07-11T09:57:43.939Z,24.11
2023-07-11T10:00:21.947Z,24.12
2023-07-11T10:02:50.038Z,24.11
2023-07-11T10:05:18.670Z,24.13
2023-07-11T10:07:45.366Z,24.13
2023-07-11T10:10:17.424Z,24.14
2023-07-11T10:12:44.764Z,24.15
2023-07-11T10:15:16.877Z,24.17
2023-07-11T10:17:45.241Z,24.17
2023-07-11T10:20:21.716Z,24.18
2023-07-11T10:22:52.702Z,24.18
2023-07-11T10:25:23.202Z,24.18
2023-07-11T10:28:00.393Z,24.21
2023-07-11T10:30:34.443Z,24.19
2023-07-11T10:33:22.459Z,24.20
2023-07-11T10:35:56.334Z,24.20
2023-07-11T10:38:28.430Z,24.21
2023-07-11T10:40:59.892Z,24.20
2023-07-11T10:43:38.343Z,24.21
2023-07-11T10:46:17.871Z,24.21
2023-07-11T10:48:53.518Z,24.20
2023-07-11T10:51:48.962Z,24.22
2023-07-11T10:54:24.113Z,24.22
2023-07-11T10:56:57.478Z,24.23
2023-07-11T10:59:25.963Z,24.22
2023-07-11T11:02:14.758Z,24.22
2023-07-11T11:05:05.837Z,24.23
2023-07-11T11:07:40.549Z,24.24
2023-07-11T11:10:47.443Z,24.24
2023-07-11T11:13:24.724Z,24.24
2023-07-11T11:16:00.706Z,24.25
2023-07-11T11:18:51.973Z,24.25
2023-07-11T11:24:50.691Z,24.27
2023-07-11T11:27:38.967Z,24.28
2023-07-11T11:30:13.610Z,24.26
2023-07-11T11:33:01.089Z,24.27
2023-07-11T11:35:58.354Z,24.27
2023-07-11T11:38:40.889Z,24.29
2023-07-11T11:41:14.053Z,24.30
2023-07-11T11:51:17.312Z,24.31
2023-07-11T11:53:47.838Z,24.31
2023-07-11T11:56:22.933Z,24.32
2023-07-11T11:59:03.286Z,24.31
2023-07-11T12:01:55.255Z,24.27
2023-07-11T12:04:36.472Z,24.27
2023-07-11T12:07:02.998Z,24.30
2023-07-11T12:09:36.972Z,24.30
2023-07-11T12:12:11.534Z,24.30
2023-07-11T12:14:44.818Z,24.30
2023-07-11T12:17:30.320Z,24.30
2023-07-11T12:20:01.459Z,24.28
2023-07-11T12:22:31.681Z,24.30
2023-07-11T12:25:01.708Z,24.32
2023-07-11T12:27:28.162Z,24.31
2023-07-11T12:29:55.317Z,24.32
2023-07-11T12:32:33.839Z,24.33
2023-07-11T12:35:06.546Z,24.34
2023-07-11T12:37:56.063Z,24.33
2023-07-11T12:40:34.753Z,24.34
2023-07-11T12:43:03.759Z,24.34
2023-07-11T12:45:55.199Z,24.37
2023-07-11T12:48:26.049Z,24.38
2023-07-11T12:50:55.231Z,24.39
2023-07-11T12:53:23.099Z,24.39
2023-07-11T12:55:54.772Z,24.39
2023-07-11T12:58:29.710Z,24.39
2023-07-11T13:00:58.049Z,24.40
2023-07-11T13:03:37.485Z,24.39
2023-07-11T13:06:19.777Z,24.39
2023-07-11T13:08:48.309Z,24.41
2023-07-11T13:11:25.573Z,24.42
2023-07-11T13:13:53.084Z,24.43
2023-07-11T13:16:34.834Z,24.44
2023-07-11T13:19:04.806Z,24.45
2023-07-11T13:21:31.461Z,24.47
2023-07-11T13:24:00.498Z,24.49
2023-07-11T13:26:30.472Z,24.51
2023-07-11T13:29:20.146Z,24.51
2023-07-11T13:31:48.761Z,24.49
2023-07-11T13:34:21.454Z,24.52
2023-07-11T13:36:50.489Z,24.54
2023-07-11T13:39:23.337Z,24.57
2023-07-11T13:41:55.925Z,24.60
2023-07-11T13:44:30.455Z,24.60
2023-07-11T13:47:00.468Z,24.62
2023-07-11T13:49:38.603Z,24.61
2023-07-11T13:52:05.670Z,24.61
2023-07-11T13:54:36.092Z,24.63
2023-07-11T13:57:04.464Z,24.68
2023-07-11T14:02:02.126Z,24.65
2023-07-11T14:04:34.352Z,24.66
2023-07-11T14:07:00.994Z,24.62
2023-07-11T14:09:28.271Z,24.66
2023-07-11T14:11:55.495Z,24.67
2023-07-11T14:14:37.815Z,24.68
2023-07-11T14:17:14.163Z,24.70
2023-07-11T14:19:40.642Z,24.70
2023-07-11T14:22:14.788Z,24.74
2023-07-11T14:24:47.315Z,24.77
2023-07-11T14:27:16.892Z,24.78
2023-07-11T14:29:43.390Z,24.77
2023-07-11T14:32:16.256Z,24.81
2023-07-11T14:34:43.317Z,24.82
2023-07-11T14:37:15.633Z,24.85
2023-07-11T14:39:42.318Z,24.86
2023-07-11T14:42:41.309Z,24.88
2023-07-11T14:45:18.152Z,24.89
2023-07-11T14:47:47.351Z,24.89
2023-07-11T14:50:20.352Z,24.90
2023-07-11T14:52:47.898Z,24.92
2023-07-11T15:00:22.876Z,24.93
2023-07-11T15:02:50.890Z,24.94
2023-07-11T15:10:27.029Z,24.90
2023-07-11T15:15:31.064Z,24.86
2023-07-11T15:17:58.803Z,24.88
2023-07-11T15:20:26.420Z,24.86
2023-07-11T15:22:55.402Z,24.84
2023-07-11T15:25:36.972Z,24.82
2023-07-11T15:28:18.670Z,24.80
2023-07-11T15:30:46.918Z,24.81
2023-07-11T15:35:52.410Z,24.80
2023-07-11T15:38:20.716Z,24.82
2023-07-11T15:40:50.260Z,24.82
2023-07-11T15:43:25.979Z,24.84
2023-07-11T15:45:52.575Z,24.86
2023-07-11T15:48:19.359Z,24.87
2023-07-11T15:50:46.076Z,24.88
2023-07-11T15:53:13.257Z,24.87
2023-07-11T15:55:40.817Z,24.89
2023-07-11T15:58:15.847Z,24.93
2023-07-11T16:00:42.614Z,24.98
2023-07-11T16:03:20.584Z,25.07
2023-07-11T16:05:49.568Z,25.11
2023-07-11T16:08:22.332Z,25.10
2023-07-11T16:10:51.553Z,25.06
2023-07-11T16:13:22.193Z,25.03
2023-07-11T16:15:50.219Z,24.98
2023-07-11T16:18:20.653Z,24.93
2023-07-11T16:20:48.564Z,24.91
2023-07-11T16:23:17.843Z,24.92
2023-07-11T16:25:46.289Z,24.94
2023-07-11T16:28:18.543Z,24.94
2023-07-11T16:30:45.676Z,24.94
2023-07-11T16:33:24.168Z,24.94
2023-07-11T16:35:52.916Z,24.96
2023-07-11T16:38:25.472Z,24.96
2023-07-11T16:40:52.559Z,24.96
2023-07-11T16:43:21.468Z,24.98
2023-07-11T16:45:48.470Z,24.97
2023-07-11T16:48:20.632Z,24.97
2023-07-11T16:50:47.093Z,24.97
2023-07-11T16:53:23.882Z,24.98
2023-07-11T16:55:54.361Z,24.97
2023-07-11T16:58:27.544Z,24.97
2023-07-11T17:00:55.297Z,24.97
2023-07-11T17:03:23.130Z,24.96
2023-07-11T17:05:50.995Z,24.96
2023-07-11T17:08:19.724Z,24.94
2023-07-11T17:10:55.410Z,24.94
2023-07-11T17:13:23.563Z,24.96
2023-07-11T17:15:51.546Z,24.98
2023-07-11T17:18:19.427Z,24.94
2023-07-11T17:20:46.580Z,24.93
2023-07-11T17:23:18.790Z,24.93
2023-07-11T17:25:46.433Z,24.96
2023-07-11T17:28:23.024Z,24.98
2023-07-11T17:30:49.677Z,24.97
2023-07-11T17:33:18.916Z,24.96
2023-07-11T17:35:46.505Z,24.98
2023-07-11T17:38:14.720Z,24.98
2023-07-11T17:40:42.545Z,24.97
2023-07-11T17:43:19.912Z,24.97
2023-07-11T17:46:01.550Z,24.97
2023-07-11T17:48:34.560Z,24.97
2023-07-11T17:51:02.653Z,24.99
2023-07-11T17:53:30.919Z,25.01
2023-07-11T17:55:57.483Z,25.01
2023-07-11T17:58:29.962Z,25.02
2023-07-11T18:00:59.115Z,25.03
2023-07-11T18:03:27.729Z,25.02
2023-07-11T18:05:55.069Z,25.01
2023-07-11T18:08:23.789Z,25.01
2023-07-11T18:10:53.504Z,25.01
2023-07-11T18:13:20.799Z,25.00
2023-07-11T18:15:49.283Z,24.99
2023-07-11T18:18:27.208Z,25.00
2023-07-11T18:20:56.339Z,24.99
2023-07-11T18:23:23.018Z,25.00
2023-07-11T18:25:52.799Z,24.99
2023-07-11T18:28:21.374Z,24.99
2023-07-11T18:30:48.664Z,25.00
2023-07-11T18:33:15.673Z,25.00
2023-07-11T18:35:42.628Z,25.01
2023-07-11T18:38:21.417Z,25.01
2023-07-11T18:40:49.243Z,24.99
2023-07-11T18:43:15.754Z,25.00
2023-07-11T18:45:45.796Z,25.00
2023-07-11T18:48:13.690Z,25.00
2023-07-11T18:50:41.567Z,25.00
2023-07-11T18:53:08.799Z,25.00
2023-07-11T18:55:35.831Z,24.98
2023-07-11T18:58:03.875Z,24.99
2023-07-11T19:00:36.883Z,24.99
2023-07-11T19:03:06.886Z,24.98
2023-07-11T19:05:34.032Z,24.98
2023-07-11T19:08:00.769Z,24.98
2023-07-11T19:10:31.575Z,24.98
2023-07-11T19:12:58.533Z,24.98
2023-07-11T19:15:28.155Z,24.99
2023-07-11T19:18:06.709Z,24.96
2023-07-11T19:20:35.999Z,24.94
2023-07-11T19:23:22.627Z,24.92
2023-07-11T19:25:50.649Z,24.91
2023-07-11T19:28:31.372Z,24.92
2023-07-11T19:31:02.550Z,24.93
2023-07-11T19:33:29.598Z,24.93
2023-07-11T19:36:00.381Z,24.92
2023-07-11T19:38:29.547Z,24.92
2023-07-11T19:40:56.798Z,24.93
2023-07-11T19:43:23.908Z,24.93
2023-07-11T19:45:53.500Z,24.92
2023-07-11T19:48:25.425Z,24.92
2023-07-11T19:51:01.561Z,24.93
2023-07-11T19:53:34.841Z,24.92
2023-07-11T19:56:21.881Z,24.92
2023-07-11T19:58:48.390Z,24.94
2023-07-11T20:01:14.935Z,24.93
2023-07-11T20:03:41.536Z,24.94
2023-07-11T20:06:17.680Z,24.93
2023-07-11T20:08:45.287Z,24.94
2023-07-11T20:11:11.798Z,24.93
2023-07-11T20:13:38.373Z,24.93
2023-07-11T20:16:17.188Z,24.94
2023-07-11T20:18:43.938Z,24.92
2023-07-11T20:21:20.100Z,24.93
2023-07-11T20:23:51.012Z,24.92
2023-07-11T20:26:28.275Z,24.91
2023-07-11T20:28:57.872Z,24.92
2023-07-11T20:31:24.958Z,24.89
2023-07-11T20:33:51.526Z,24.89
2023-07-11T20:36:30.829Z,24.89
2023-07-11T20:38:58.227Z,24.88
2023-07-11T20:41:25.730Z,24.88
2023-07-11T20:43:52.305Z,24.88
2023-07-11T20:46:21.506Z,24.87
2023-07-11T20:48:49.160Z,24.81
2023-07-11T20:51:18.039Z,24.84
2023-07-11T20:53:48.187Z,24.87
2023-07-11T20:56:21.854Z,24.85
2023-07-11T20:58:49.728Z,24.86
2023-07-11T21:01:18.482Z,24.82
2023-07-11T21:03:45.987Z,24.77
2023-07-11T21:06:33.407Z,24.75
2023-07-11T21:09:02.394Z,24.72
2023-07-11T21:11:29.563Z,24.71
2023-07-11T21:13:57.138Z,24.69
2023-07-11T21:16:32.763Z,24.66
2023-07-11T21:19:01.546Z,24.67
2023-07-11T21:21:28.205Z,24.62
2023-07-11T21:23:54.714Z,24.64
2023-07-11T21:26:26.213Z,24.62
2023-07-11T21:28:53.914Z,24.61
2023-07-11T21:31:21.007Z,24.60
2023-07-11T21:33:48.318Z,24.63
2023-07-11T21:36:22.672Z,24.65
2023-07-11T21:38:50.531Z,24.64
2023-07-11T21:41:18.809Z,24.66
2023-07-11T21:43:45.876Z,24.67
2023-07-11T21:46:25.712Z,24.67
2023-07-11T21:48:52.364Z,24.63
2023-07-11T21:51:19.516Z,24.61
2023-07-11T21:53:46.139Z,24.62
2023-07-11T21:56:20.254Z,24.62
2023-07-11T21:58:46.824Z,24.59
2023-07-11T22:01:13.722Z,24.59
2023-07-11T22:03:40.888Z,24.59
2023-07-11T22:06:28.281Z,24.60
2023-07-11T22:08:55.024Z,24.59
2023-07-11T22:11:21.564Z,24.60
2023-07-11T22:13:48.986Z,24.58
2023-07-11T22:16:22.009Z,24.57
2023-07-11T22:18:49.439Z,24.55
2023-07-11T22:21:18.206Z,24.56
2023-07-11T22:23:44.724Z,24.55
2023-07-11T22:26:13.487Z,24.54
2023-07-11T22:28:40.049Z,24.53
2023-07-11T22:31:07.144Z,24.52
2023-07-11T22:33:33.767Z,24.52
2023-07-11T22:36:00.577Z,24.51
2023-07-11T22:38:27.040Z,24.51
2023-07-11T22:40:53.613Z,24.50
2023-07-11T22:43:22.529Z,24.49
2023-07-11T22:45:52.478Z,24.49
2023-07-11T22:48:21.646Z,24.49
2023-07-11T22:50:49.693Z,24.50
2023-07-11T22:53:19.280Z,24.48
2023-07-11T22:55:50.468Z,24.49
2023-07-11T22:58:24.738Z,24.47
2023-07-11T23:00:52.886Z,24.46
2023-07-11T23:03:20.022Z,24.45
2023-07-11T23:05:47.245Z,24.44
2023-07-11T23:08:16.581Z,24.46
2023-07-11T23:10:44.657Z,24.46
2023-07-11T23:13:12.054Z,24.45
2023-07-11T23:15:39.478Z,24.46
2023-07-11T23:18:06.191Z,24.43
2023-07-11T23:20:37.353Z,24.45
2023-07-11T23:23:04.992Z,24.42
2023-07-11T23:25:32.498Z,24.40
2023-07-11T23:28:00.462Z,24.39
2023-07-11T23:30:33.252Z,24.37
2023-07-11T23:33:00.319Z,24.36
2023-07-11T23:35:33.071Z,24.37
2023-07-11T23:38:01.364Z,24.37
2023-07-11T23:40:45.608Z,24.35
2023-07-11T23:43:39.101Z,24.35
2023-07-11T23:46:32.057Z,24.37
2023-07-11T23:48:59.208Z,24.39
2023-07-11T23:51:28.940Z,24.37
2023-07-11T23:53:55.886Z,24.39
2023-07-11T23:56:25.184Z,24.40
2023-07-11T23:58:52.314Z,24.38
